createdAt,value
2023-01-13T00:03:57.259Z,3543
2023-01-13T00:13:57.235Z,3543
2023-01-13T00:23:57.223Z,3543
2023-01-13T00:33:57.241Z,3543
2023-01-13T00:43:57.216Z,3543
2023-01-13T00:53:57.209Z,3543
2023-01-13T01:03:57.188Z,3543
2023-01-13T01:13:57.190Z,3543
2023-01-13T01:23:57.175Z,3543
2023-01-13T01:33:57.150Z,3543
2023-01-13T01:43:57.143Z,3543
2023-01-13T01:53:57.147Z,3543
2023-01-13T02:03:57.122Z,3543
2023-01-13T02:13:57.114Z,3543
2023-01-13T02:23:57.102Z,3543
2023-01-13T02:33:57.094Z,3543
2023-01-13T02:43:57.086Z,3543
2023-01-13T02:53:57.079Z,3541
2023-01-13T03:03:57.093Z,3543
2023-01-13T03:13:57.100Z,3543
2023-01-13T03:23:57.070Z,3543
2023-01-13T03:33:57.062Z,3543
2023-01-13T03:43:57.052Z,3543
2023-01-13T03:53:57.031Z,3543
2023-01-13T04:03:57.180Z,3543
2023-01-13T04:13:57.028Z,3543
2023-01-13T04:23:57.007Z,3543
2023-01-13T04:33:56.992Z,3543
2023-01-13T04:43:56.997Z,3543
2023-01-13T04:53:56.975Z,3543
2023-01-13T05:03:56.992Z,3543
2023-01-13T05:13:56.962Z,3543
2023-01-13T05:23:56.939Z,3543
2023-01-13T05:33:56.932Z,3543
2023-01-13T05:43:56.951Z,3543
2023-01-13T05:53:56.930Z,3543
2023-01-13T06:03:56.917Z,3543
2023-01-13T06:13:56.907Z,3543
2023-01-13T06:23:56.904Z,3543
2023-01-13T06:33:56.961Z,3543
2023-01-13T06:43:56.883Z,3543
2023-01-13T06:53:56.848Z,3543
2023-01-13T07:03:56.852Z,3543
2023-01-13T07:13:56.831Z,3543
2023-01-13T07:23:56.858Z,3543
2023-01-13T07:33:56.821Z,3543
2023-01-13T07:43:56.805Z,3543
2023-01-13T07:53:56.781Z,3543
2023-01-13T08:03:56.778Z,3546
2023-01-13T08:13:56.769Z,3543
2023-01-13T08:23:56.773Z,3546
2023-01-13T08:33:56.746Z,3543
2023-01-13T08:43:56.730Z,3543
2023-01-13T08:53:56.728Z,3543
2023-01-13T09:03:56.786Z,3543
2023-01-13T09:13:56.707Z,3543
2023-01-13T09:23:56.687Z,3546
2023-01-13T09:33:56.689Z,3546
2023-01-13T09:43:56.684Z,3543
2023-01-13T09:53:56.668Z,3543
2023-01-13T10:03:56.635Z,3546
2023-01-13T10:13:56.636Z,3546
2023-01-13T10:23:56.624Z,3546
2023-01-13T10:33:56.614Z,3548
2023-01-13T10:43:56.606Z,3548
2023-01-13T10:53:56.588Z,3548
2023-01-13T11:03:56.570Z,3548
2023-01-13T11:13:56.546Z,3551
2023-01-13T11:23:56.531Z,3553
2023-01-13T11:33:56.515Z,3553
2023-01-13T11:43:56.511Z,3553
2023-01-13T11:53:56.506Z,3553
2023-01-13T12:03:56.471Z,3553
2023-01-13T12:13:56.462Z,3556
2023-01-13T12:23:56.447Z,3556
2023-01-13T12:33:56.441Z,3556
2023-01-13T12:43:56.436Z,3558
2023-01-13T12:53:56.511Z,3558
2023-01-13T13:03:56.384Z,3558
2023-01-13T13:13:56.356Z,3558
2023-01-13T13:23:56.342Z,3558
2023-01-13T13:33:56.336Z,3558
2023-01-13T13:43:56.325Z,3558
2023-01-13T13:53:56.292Z,3561
2023-01-13T14:03:56.284Z,3561
2023-01-13T14:13:56.233Z,3563
2023-01-13T14:23:56.203Z,3561
2023-01-13T14:33:56.183Z,3558
2023-01-13T14:43:56.156Z,3558
2023-01-13T14:53:56.142Z,3558
2023-01-13T15:03:56.114Z,3558
2023-01-13T15:13:56.090Z,3558
2023-01-13T15:23:56.088Z,3558
2023-01-13T15:33:56.056Z,3556
2023-01-13T15:43:56.058Z,3558
2023-01-13T15:53:56.047Z,3556
2023-01-13T16:03:56.592Z,3556
2023-01-13T16:13:56.016Z,3556
2023-01-13T16:23:56.019Z,3556
2023-01-13T16:33:56.031Z,3553
2023-01-13T16:43:56.027Z,3556
2023-01-13T16:53:56.037Z,3553
2023-01-13T17:03:56.040Z,3553
2023-01-13T17:13:56.011Z,3553
2023-01-13T17:23:56.000Z,3553
2023-01-13T17:33:55.974Z,3553
2023-01-13T17:43:55.956Z,3553
2023-01-13T17:53:55.987Z,3551
2023-01-13T18:03:55.935Z,3551
2023-01-13T18:13:55.939Z,3553
2023-01-13T18:23:55.904Z,3551
2023-01-13T18:33:55.896Z,3553
2023-01-13T18:43:55.868Z,3551
2023-01-13T18:53:55.883Z,3548
2023-01-13T19:03:55.852Z,3548
2023-01-13T19:13:55.851Z,3551
2023-01-13T19:23:55.837Z,3548
2023-01-13T19:33:55.827Z,3548
2023-01-13T19:43:55.809Z,3548
2023-01-13T19:53:55.791Z,3548
2023-01-13T20:03:55.798Z,3548
2023-01-13T20:13:55.788Z,3551
2023-01-13T20:23:55.782Z,3551
2023-01-13T20:33:55.747Z,3551
2023-01-13T20:43:55.738Z,3548
2023-01-13T20:53:55.737Z,3548
2023-01-13T21:03:55.778Z,3548
2023-01-13T21:13:55.703Z,3548
2023-01-13T21:23:55.688Z,3548
2023-01-13T21:33:55.677Z,3548
2023-01-13T21:43:55.678Z,3546
2023-01-13T21:53:55.669Z,3546
2023-01-13T22:03:55.659Z,3543
2023-01-13T22:13:57.151Z,3548
2023-01-13T22:23:55.639Z,3543
2023-01-13T22:33:55.625Z,3546
2023-01-13T22:43:55.606Z,3543
2023-01-13T22:53:55.593Z,3543
2023-01-13T23:03:55.739Z,3543
2023-01-13T23:13:55.586Z,3543
2023-01-13T23:23:56.785Z,3546
2023-01-13T23:33:55.564Z,3543
2023-01-13T23:43:55.564Z,3543
2023-01-13T23:53:55.565Z,3543
